createdAt,value
2018-01-30T00:01:07.055Z,80.75
2018-01-30T00:03:35.474Z,81.00
2018-01-30T00:06:03.925Z,81.17
2018-01-30T00:08:32.316Z,80.74
2018-01-30T00:11:00.710Z,80.77
2018-01-30T00:13:29.175Z,80.07
2018-01-30T00:15:57.585Z,80.21
2018-01-30T00:18:25.983Z,80.69
2018-01-30T00:20:54.684Z,80.80
2018-01-30T00:23:23.104Z,80.38
2018-01-30T00:25:51.514Z,79.61
2018-01-30T00:28:19.963Z,79.82
2018-01-30T00:30:48.411Z,80.05
2018-01-30T00:33:16.816Z,79.70
2018-01-30T00:35:45.277Z,79.88
2018-01-30T00:38:13.709Z,79.57
2018-01-30T00:40:42.118Z,80.34
2018-01-30T00:43:10.571Z,80.31
2018-01-30T00:45:38.976Z,79.91
2018-01-30T00:48:07.383Z,80.21
2018-01-30T00:50:35.819Z,80.23
2018-01-30T00:53:04.231Z,79.88
2018-01-30T00:55:32.646Z,80.21
2018-01-30T00:58:01.086Z,80.62
2018-01-30T01:00:29.509Z,80.16
2018-01-30T01:02:57.914Z,80.39
2018-01-30T01:05:26.385Z,80.14
2018-01-30T01:07:54.773Z,80.40
2018-01-30T01:10:23.171Z,79.72
2018-01-30T01:12:51.590Z,79.70
2018-01-30T01:15:20.004Z,79.92
2018-01-30T01:17:48.442Z,79.57
2018-01-30T01:20:16.905Z,79.87
2018-01-30T01:22:45.316Z,80.40
2018-01-30T01:25:13.762Z,80.05
2018-01-30T01:27:42.235Z,80.45
2018-01-30T01:30:10.660Z,79.87
2018-01-30T01:32:39.070Z,79.68
2018-01-30T01:35:07.551Z,80.19
2018-01-30T01:37:35.945Z,80.08
2018-01-30T01:40:04.672Z,80.09
2018-01-30T01:42:33.102Z,79.75
2018-01-30T01:45:01.531Z,80.10
2018-01-30T01:47:29.949Z,79.61
2018-01-30T01:49:58.621Z,79.86
2018-01-30T01:52:27.057Z,79.63
2018-01-30T01:54:55.453Z,79.66
2018-01-30T01:57:23.897Z,80.22
2018-01-30T01:59:52.290Z,79.81
2018-01-30T02:02:20.684Z,78.82
2018-01-30T02:04:49.143Z,79.60
2018-01-30T02:07:17.549Z,78.76
2018-01-30T02:09:45.965Z,78.95
2018-01-30T02:12:14.401Z,78.64
2018-01-30T02:14:42.832Z,78.39
2018-01-30T02:17:11.268Z,78.89
2018-01-30T02:19:39.745Z,78.77
2018-01-30T02:22:08.189Z,78.42
2018-01-30T02:24:36.600Z,78.21
2018-01-30T02:27:05.072Z,77.55
2018-01-30T02:29:33.469Z,79.00
2018-01-30T02:32:01.867Z,78.63
2018-01-30T02:34:30.322Z,78.78
2018-01-30T02:36:58.755Z,78.34
2018-01-30T02:39:27.153Z,78.40
2018-01-30T02:41:55.604Z,77.76
2018-01-30T02:44:24.006Z,78.07
2018-01-30T02:46:52.400Z,77.80
2018-01-30T02:49:20.840Z,77.66
2018-01-30T02:51:49.246Z,77.91
2018-01-30T02:54:17.659Z,77.91
2018-01-30T02:56:46.090Z,77.22
2018-01-30T02:59:14.504Z,77.63
2018-01-30T03:01:42.930Z,77.91
2018-01-30T03:04:11.426Z,77.51
2018-01-30T03:06:39.874Z,77.63
2018-01-30T03:09:08.286Z,77.45
2018-01-30T03:11:36.763Z,77.27
2018-01-30T03:14:05.174Z,78.06
2018-01-30T03:16:33.573Z,77.23
2018-01-30T03:19:02.050Z,77.07
2018-01-30T03:21:30.454Z,76.51
2018-01-30T03:23:58.844Z,77.72
2018-01-30T03:26:27.316Z,78.37
2018-01-30T03:28:55.705Z,78.07
2018-01-30T03:31:24.117Z,77.98
2018-01-30T03:33:52.608Z,78.03
2018-01-30T03:36:21.014Z,77.39
2018-01-30T03:38:49.414Z,78.04
2018-01-30T03:41:17.900Z,77.60
2018-01-30T03:43:46.324Z,77.85
2018-01-30T03:46:14.748Z,78.49
2018-01-30T03:48:43.203Z,77.97
2018-01-30T03:51:11.837Z,78.01
2018-01-30T03:53:40.241Z,78.07
2018-01-30T03:56:08.711Z,78.22
2018-01-30T03:58:37.144Z,77.75
2018-01-30T04:01:05.577Z,77.99
2018-01-30T04:03:34.029Z,77.97
2018-01-30T04:06:02.436Z,78.06
2018-01-30T04:08:30.906Z,78.35
2018-01-30T04:10:59.393Z,78.56
2018-01-30T04:13:27.835Z,78.33
2018-01-30T04:15:56.275Z,78.35
2018-01-30T04:18:24.745Z,78.01
2018-01-30T04:20:53.186Z,78.89
2018-01-30T04:23:21.626Z,78.96
2018-01-30T04:25:50.143Z,78.22
2018-01-30T04:28:18.563Z,78.59
2018-01-30T04:30:47.004Z,78.14
2018-01-30T04:33:15.474Z,78.60
2018-01-30T04:35:43.903Z,78.02
2018-01-30T04:38:12.315Z,78.62
2018-01-30T04:40:40.751Z,77.93
2018-01-30T04:43:09.162Z,78.09
2018-01-30T04:45:37.566Z,78.50
2018-01-30T04:48:06.012Z,78.55
2018-01-30T04:50:34.401Z,79.29
2018-01-30T04:53:02.815Z,78.95
2018-01-30T04:55:31.274Z,79.55
2018-01-30T04:58:00.056Z,79.57
2018-01-30T05:00:28.476Z,79.69
2018-01-30T05:02:56.922Z,79.42
2018-01-30T05:05:25.341Z,79.76
2018-01-30T05:07:53.739Z,79.36
2018-01-30T05:10:22.197Z,80.19
2018-01-30T05:12:50.660Z,80.28
2018-01-30T05:15:19.083Z,79.75
2018-01-30T05:17:47.557Z,80.53
2018-01-30T05:20:15.967Z,80.12
2018-01-30T05:22:44.387Z,80.62
2018-01-30T05:25:12.821Z,80.72
2018-01-30T05:27:41.218Z,80.69
2018-01-30T05:30:09.618Z,80.69
2018-01-30T05:32:38.053Z,81.07
2018-01-30T05:35:06.477Z,80.50
2018-01-30T05:37:34.884Z,80.83
2018-01-30T05:40:03.352Z,80.93
2018-01-30T05:42:31.765Z,81.11
2018-01-30T05:45:00.174Z,80.97
2018-01-30T05:47:28.630Z,80.59
2018-01-30T05:49:57.064Z,80.45
2018-01-30T05:52:25.491Z,80.61
2018-01-30T05:54:53.955Z,81.01
2018-01-30T05:57:22.369Z,80.69
2018-01-30T05:59:50.757Z,80.70
2018-01-30T06:02:19.199Z,80.58
2018-01-30T06:04:47.613Z,80.55
2018-01-30T06:07:16.052Z,80.91
2018-01-30T06:09:44.519Z,80.51
2018-01-30T06:12:12.922Z,80.65
2018-01-30T06:14:41.318Z,80.50
2018-01-30T06:17:09.778Z,80.66
2018-01-30T06:19:38.172Z,80.52
2018-01-30T06:22:06.586Z,80.50
2018-01-30T06:24:35.021Z,80.65
2018-01-30T06:27:03.426Z,80.55
2018-01-30T06:29:31.835Z,80.73
2018-01-30T06:32:00.265Z,81.12
2018-01-30T06:34:28.674Z,80.53
2018-01-30T06:36:57.077Z,80.86
2018-01-30T06:39:25.538Z,80.64
2018-01-30T06:41:53.965Z,81.21
2018-01-30T06:44:22.355Z,80.75
2018-01-30T06:46:50.819Z,80.89
2018-01-30T06:49:19.262Z,80.85
2018-01-30T06:51:47.692Z,80.73
2018-01-30T06:54:16.153Z,81.06
2018-01-30T06:56:44.555Z,80.46
2018-01-30T06:59:12.954Z,80.47
2018-01-30T07:01:41.758Z,80.78
2018-01-30T07:04:10.158Z,80.82
2018-01-30T07:06:38.560Z,80.70
2018-01-30T07:09:07.016Z,81.31
2018-01-30T07:11:35.406Z,80.83
2018-01-30T07:14:03.809Z,81.12
2018-01-30T07:16:32.290Z,80.74
2018-01-30T07:19:00.709Z,80.68
2018-01-30T07:21:29.111Z,80.82
2018-01-30T07:23:57.550Z,80.77
2018-01-30T07:26:25.951Z,80.91
2018-01-30T07:28:54.346Z,81.44
2018-01-30T07:31:22.817Z,80.79
2018-01-30T07:33:51.206Z,80.83
2018-01-30T07:36:19.612Z,80.81
2018-01-30T07:38:48.081Z,80.69
2018-01-30T07:41:16.507Z,80.10
2018-01-30T07:43:44.909Z,80.47
2018-01-30T07:46:13.389Z,80.39
2018-01-30T07:48:41.790Z,80.40
2018-01-30T07:51:10.231Z,80.74
2018-01-30T07:53:38.674Z,80.83
2018-01-30T07:56:07.104Z,80.39
2018-01-30T07:58:35.502Z,80.38
2018-01-30T08:01:03.976Z,79.76
2018-01-30T08:03:32.362Z,80.15
2018-01-30T08:06:00.807Z,80.09
2018-01-30T08:08:29.311Z,80.53
2018-01-30T08:10:57.761Z,80.09
2018-01-30T08:13:26.251Z,80.33
2018-01-30T08:15:54.717Z,80.15
2018-01-30T08:18:23.129Z,79.97
2018-01-30T08:20:51.554Z,79.98
2018-01-30T08:23:19.996Z,79.69
2018-01-30T08:25:48.419Z,79.83
2018-01-30T08:28:16.845Z,80.07
2018-01-30T08:30:45.909Z,79.92
2018-01-30T08:33:14.317Z,80.25
2018-01-30T08:35:42.740Z,79.50
2018-01-30T08:38:11.214Z,80.02
2018-01-30T08:40:39.651Z,79.13
2018-01-30T08:43:08.070Z,79.72
2018-01-30T08:45:36.536Z,79.59
2018-01-30T08:48:04.937Z,78.85
2018-01-30T08:50:33.377Z,79.05
2018-01-30T08:53:01.837Z,78.86
2018-01-30T08:55:30.256Z,78.42
2018-01-30T08:57:58.649Z,79.35
2018-01-30T09:00:27.128Z,78.84
2018-01-30T09:02:55.521Z,78.70
2018-01-30T09:05:23.934Z,79.21
2018-01-30T09:07:52.366Z,78.68
2018-01-30T09:10:20.765Z,78.30
2018-01-30T09:12:49.167Z,78.75
2018-01-30T09:15:17.623Z,78.99
2018-01-30T09:17:46.171Z,78.45
2018-01-30T09:20:14.565Z,78.47
2018-01-30T09:22:43.031Z,78.43
2018-01-30T09:25:11.433Z,78.79
2018-01-30T09:27:39.868Z,78.05
2018-01-30T09:30:08.314Z,78.86
2018-01-30T09:32:36.722Z,77.81
2018-01-30T09:35:05.154Z,77.47
2018-01-30T09:37:33.599Z,77.35
2018-01-30T09:40:02.032Z,78.05
2018-01-30T09:42:30.439Z,77.36
2018-01-30T09:44:58.888Z,77.98
2018-01-30T09:47:27.273Z,77.02
2018-01-30T09:49:55.675Z,76.75
2018-01-30T09:52:24.151Z,77.44
2018-01-30T09:54:52.576Z,77.78
2018-01-30T09:57:20.986Z,77.30
2018-01-30T09:59:49.439Z,77.42
2018-01-30T10:02:17.895Z,77.29
2018-01-30T10:04:46.328Z,76.81
2018-01-30T10:07:14.825Z,77.49
2018-01-30T10:09:43.288Z,77.58
2018-01-30T10:12:11.706Z,77.70
2018-01-30T10:14:40.147Z,77.93
2018-01-30T10:17:08.562Z,77.53
2018-01-30T10:19:36.958Z,77.46
2018-01-30T10:22:05.404Z,77.26
2018-01-30T10:24:33.814Z,77.49
2018-01-30T10:27:02.216Z,77.54
2018-01-30T10:29:30.818Z,76.04
2018-01-30T10:31:59.242Z,77.20
2018-01-30T10:34:27.675Z,76.13
2018-01-30T10:36:56.146Z,76.95
2018-01-30T10:39:24.545Z,77.14
2018-01-30T10:41:52.945Z,76.98
2018-01-30T10:44:21.537Z,75.77
2018-01-30T10:46:49.937Z,76.06
2018-01-30T10:49:18.331Z,75.76
2018-01-30T10:51:46.810Z,75.31
2018-01-30T10:54:15.244Z,75.93
2018-01-30T10:56:43.683Z,76.10
2018-01-30T10:59:12.159Z,75.63
2018-01-30T11:01:40.569Z,74.93
2018-01-30T11:04:09.870Z,74.72
2018-01-30T11:06:38.351Z,75.23
2018-01-30T11:09:06.763Z,75.66
2018-01-30T11:11:35.174Z,75.12
2018-01-30T11:14:03.638Z,74.63
2018-01-30T11:16:32.039Z,74.83
2018-01-30T11:19:00.456Z,74.21
2018-01-30T11:21:29.079Z,74.05
2018-01-30T11:23:57.495Z,74.53
2018-01-30T11:26:25.897Z,73.48
2018-01-30T11:28:54.420Z,74.09
2018-01-30T11:31:22.834Z,72.80
2018-01-30T11:33:51.341Z,73.44
2018-01-30T11:36:19.788Z,72.58
2018-01-30T11:38:48.206Z,73.89
2018-01-30T11:41:16.617Z,73.67
2018-01-30T11:43:45.074Z,72.96
2018-01-30T11:46:13.496Z,72.52
2018-01-30T11:48:41.897Z,73.40
2018-01-30T11:51:10.332Z,72.72
2018-01-30T11:53:38.745Z,72.59
2018-01-30T11:56:07.145Z,73.10
2018-01-30T11:58:35.595Z,73.33
2018-01-30T12:01:04.014Z,73.39
2018-01-30T12:03:32.407Z,73.61
2018-01-30T12:06:00.861Z,73.50
2018-01-30T12:08:29.266Z,72.73
2018-01-30T12:10:57.896Z,73.10
2018-01-30T12:13:26.591Z,72.09
2018-01-30T12:15:55.002Z,73.59
2018-01-30T12:18:23.403Z,72.72
2018-01-30T12:20:51.840Z,72.36
2018-01-30T12:23:20.306Z,71.99
2018-01-30T12:25:48.710Z,71.61
2018-01-30T12:28:17.933Z,72.03
2018-01-30T12:30:46.329Z,72.21
2018-01-30T12:33:14.722Z,69.66
2018-01-30T12:35:43.720Z,69.34
2018-01-30T12:38:12.137Z,69.85
2018-01-30T12:40:40.578Z,70.59
2018-01-30T12:43:09.186Z,69.63
2018-01-30T12:45:37.585Z,69.74
2018-01-30T12:48:07.012Z,70.06
2018-01-30T12:50:35.445Z,69.44
2018-01-30T12:53:03.844Z,69.55
2018-01-30T12:55:32.263Z,68.74
2018-01-30T12:58:01.094Z,70.24
2018-01-30T13:00:29.525Z,69.83
2018-01-30T13:02:57.945Z,69.51
2018-01-30T13:05:26.389Z,70.95
2018-01-30T13:07:54.786Z,70.90
2018-01-30T13:10:23.224Z,71.62
2018-01-30T13:12:51.690Z,71.72
2018-01-30T13:15:20.113Z,71.50
2018-01-30T13:17:48.524Z,71.28
2018-01-30T13:20:17.005Z,71.87
2018-01-30T13:22:45.415Z,72.39
2018-01-30T13:25:13.857Z,71.98
2018-01-30T13:27:42.305Z,71.92
2018-01-30T13:30:10.729Z,71.78
2018-01-30T13:32:39.280Z,72.29
2018-01-30T13:35:07.766Z,72.10
2018-01-30T13:37:36.192Z,72.03
2018-01-30T13:40:04.627Z,71.76
2018-01-30T13:42:33.108Z,71.02
2018-01-30T13:45:01.555Z,70.75
2018-01-30T13:47:29.975Z,69.63
2018-01-30T13:49:58.453Z,68.24
2018-01-30T13:52:26.857Z,68.13
2018-01-30T13:54:55.277Z,67.91
2018-01-30T13:57:23.768Z,68.69
2018-01-30T13:59:52.182Z,68.75
2018-01-30T14:02:20.589Z,68.62
2018-01-30T14:04:49.066Z,69.16
2018-01-30T14:07:17.464Z,69.89
2018-01-30T14:09:45.872Z,70.14
2018-01-30T14:12:14.342Z,69.80
2018-01-30T14:14:42.748Z,69.66
2018-01-30T14:17:11.148Z,69.76
2018-01-30T14:19:39.597Z,69.89
2018-01-30T14:22:08.030Z,69.90
2018-01-30T14:24:36.443Z,70.42
2018-01-30T14:27:04.898Z,69.66
2018-01-30T14:29:33.313Z,68.83
2018-01-30T14:32:01.791Z,70.06
2018-01-30T14:34:30.218Z,70.28
2018-01-30T14:36:58.642Z,69.51
2018-01-30T14:39:27.054Z,70.25
2018-01-30T14:41:55.512Z,70.19
2018-01-30T14:44:23.918Z,70.60
2018-01-30T14:46:52.340Z,71.79
2018-01-30T14:49:20.784Z,71.20
2018-01-30T14:51:49.445Z,70.67
2018-01-30T14:54:17.854Z,71.05
2018-01-30T14:56:46.318Z,70.95
2018-01-30T14:59:14.741Z,70.44
2018-01-30T15:01:43.156Z,69.72
2018-01-30T15:04:11.610Z,70.85
2018-01-30T15:06:40.008Z,71.59
2018-01-30T15:09:08.410Z,71.25
2018-01-30T15:11:36.844Z,72.03
2018-01-30T15:14:05.254Z,71.55
2018-01-30T15:16:33.668Z,71.81
2018-01-30T15:19:02.174Z,71.66
2018-01-30T15:21:30.578Z,73.07
2018-01-30T15:23:59.000Z,73.08
2018-01-30T15:26:27.680Z,73.93
2018-01-30T15:28:56.104Z,73.56
2018-01-30T15:31:24.508Z,73.59
2018-01-30T15:33:53.005Z,73.47
2018-01-30T15:36:21.653Z,73.21
2018-01-30T15:38:50.202Z,73.83
2018-01-30T15:41:18.672Z,74.14
2018-01-30T15:43:47.174Z,74.19
2018-01-30T15:46:15.581Z,74.33
2018-01-30T15:48:44.064Z,74.00
2018-01-30T15:51:12.461Z,74.53
2018-01-30T15:53:40.881Z,75.48
2018-01-30T15:56:09.390Z,75.50
2018-01-30T15:58:37.794Z,76.12
2018-01-30T16:01:06.203Z,75.28
2018-01-30T16:03:34.667Z,75.56
2018-01-30T16:06:03.425Z,75.71
2018-01-30T16:08:31.824Z,76.08
2018-01-30T16:11:00.293Z,76.22
2018-01-30T16:13:28.794Z,75.21
2018-01-30T16:15:57.198Z,74.88
2018-01-30T16:18:25.674Z,74.79
2018-01-30T16:20:54.119Z,76.31
2018-01-30T16:23:22.563Z,75.79
2018-01-30T16:25:51.039Z,76.02
2018-01-30T16:28:19.465Z,76.20
2018-01-30T16:30:47.911Z,75.91
2018-01-30T16:33:16.395Z,75.76
2018-01-30T16:35:44.826Z,76.20
2018-01-30T16:38:20.318Z,76.80
2018-01-30T16:40:48.748Z,75.54
2018-01-30T16:43:17.186Z,74.91
2018-01-30T16:45:45.637Z,74.96
2018-01-30T16:48:14.069Z,75.12
2018-01-30T16:50:42.487Z,75.11
2018-01-30T16:53:10.992Z,74.87
2018-01-30T16:55:39.408Z,75.04
2018-01-30T16:58:07.822Z,76.21
2018-01-30T17:00:36.294Z,75.53
2018-01-30T17:03:04.744Z,75.33
2018-01-30T17:05:33.182Z,75.42
2018-01-30T17:08:01.657Z,75.66
2018-01-30T17:10:30.068Z,75.60
2018-01-30T17:12:58.489Z,75.55
2018-01-30T17:15:26.946Z,75.41
2018-01-30T17:17:55.342Z,75.58
2018-01-30T17:20:23.771Z,75.84
2018-01-30T17:22:52.234Z,75.62
2018-01-30T17:25:20.681Z,75.62
2018-01-30T17:27:49.626Z,75.97
2018-01-30T17:30:18.098Z,75.79
2018-01-30T17:32:46.587Z,75.87
2018-01-30T17:35:14.991Z,76.34
2018-01-30T17:37:43.456Z,76.63
2018-01-30T17:40:11.908Z,76.30
2018-01-30T17:42:40.968Z,76.34
2018-01-30T17:45:09.430Z,76.67
2018-01-30T17:47:37.842Z,76.69
2018-01-30T17:50:06.313Z,76.68
2018-01-30T17:52:34.734Z,76.72
2018-01-30T17:55:03.142Z,77.08
2018-01-30T17:57:31.570Z,76.78
2018-01-30T18:00:00.220Z,76.72
2018-01-30T18:02:28.906Z,76.89
2018-01-30T18:04:57.353Z,77.00
2018-01-30T18:07:25.839Z,76.78
2018-01-30T18:09:54.282Z,76.94
2018-01-30T18:12:22.700Z,77.05
2018-01-30T18:14:51.186Z,76.88
2018-01-30T18:17:19.601Z,76.84
2018-01-30T18:19:48.007Z,76.51
2018-01-30T18:22:16.460Z,76.89
2018-01-30T18:24:44.861Z,77.41
2018-01-30T18:27:13.266Z,77.00
2018-01-30T18:29:41.726Z,78.06
2018-01-30T18:32:10.144Z,78.39
2018-01-30T18:34:38.578Z,78.22
2018-01-30T18:37:07.035Z,78.93
2018-01-30T18:39:35.578Z,78.70
2018-01-30T18:42:04.006Z,78.12
2018-01-30T18:44:32.512Z,78.40
2018-01-30T18:47:00.925Z,78.04
2018-01-30T18:49:29.337Z,78.03
2018-01-30T18:51:57.864Z,78.11
2018-01-30T18:54:26.275Z,78.87
2018-01-30T18:56:54.703Z,78.71
2018-01-30T18:59:23.152Z,78.13
2018-01-30T19:01:51.586Z,78.62
2018-01-30T19:04:20.003Z,78.97
2018-01-30T19:06:48.582Z,78.52
2018-01-30T19:09:19.182Z,78.75
2018-01-30T19:11:47.611Z,78.78
2018-01-30T19:14:16.055Z,78.24
2018-01-30T19:16:44.466Z,78.31
2018-01-30T19:19:12.885Z,78.01
2018-01-30T19:21:41.397Z,78.81
2018-01-30T19:24:09.842Z,78.33
2018-01-30T19:26:38.286Z,78.33
2018-01-30T19:29:06.753Z,78.52
2018-01-30T19:31:35.191Z,78.56
2018-01-30T19:34:03.600Z,79.95
2018-01-30T19:36:32.251Z,80.11
2018-01-30T19:39:00.660Z,79.86
2018-01-30T19:41:29.072Z,79.79
2018-01-30T19:43:57.560Z,79.64
2018-01-30T19:46:25.960Z,79.60
2018-01-30T19:48:54.361Z,80.23
2018-01-30T19:51:22.803Z,80.27
2018-01-30T19:53:51.210Z,79.97
2018-01-30T19:56:19.666Z,79.72
2018-01-30T19:58:48.187Z,79.64
2018-01-30T20:01:16.608Z,79.52
2018-01-30T20:03:45.035Z,79.54
2018-01-30T20:06:13.662Z,79.41
2018-01-30T20:08:42.090Z,79.72
2018-01-30T20:11:10.498Z,79.15
2018-01-30T20:13:38.981Z,79.60
2018-01-30T20:16:07.388Z,79.38
2018-01-30T20:18:35.827Z,79.36
2018-01-30T20:21:04.297Z,79.30
2018-01-30T20:23:32.731Z,79.71
2018-01-30T20:26:01.132Z,79.34
2018-01-30T20:28:29.637Z,79.08
2018-01-30T20:30:58.043Z,79.38
2018-01-30T20:33:26.451Z,79.01
2018-01-30T20:35:54.903Z,78.86
2018-01-30T20:38:23.354Z,79.06
2018-01-30T20:40:51.761Z,79.06
2018-01-30T20:43:20.244Z,79.20
2018-01-30T20:45:48.665Z,79.00
2018-01-30T20:48:17.179Z,79.09
2018-01-30T20:50:45.650Z,79.30
2018-01-30T20:53:14.100Z,79.43
2018-01-30T20:55:42.510Z,79.56
2018-01-30T20:58:10.977Z,79.55
2018-01-30T21:00:39.400Z,79.01
2018-01-30T21:03:07.835Z,79.26
2018-01-30T21:05:36.330Z,79.80
2018-01-30T21:08:04.769Z,79.59
2018-01-30T21:10:33.183Z,79.55
2018-01-30T21:13:01.650Z,79.93
2018-01-30T21:15:30.091Z,80.21
2018-01-30T21:17:58.491Z,80.33
2018-01-30T21:20:26.915Z,80.10
2018-01-30T21:22:55.354Z,80.29
2018-01-30T21:25:23.786Z,80.01
2018-01-30T21:27:52.225Z,80.12
2018-01-30T21:30:20.641Z,79.99
2018-01-30T21:32:49.049Z,79.88
2018-01-30T21:35:17.661Z,80.05
2018-01-30T21:37:46.066Z,79.92
2018-01-30T21:40:14.469Z,79.67
2018-01-30T21:42:42.925Z,78.98
2018-01-30T21:45:11.362Z,79.27
2018-01-30T21:47:39.768Z,78.25
2018-01-30T21:50:08.233Z,78.44
2018-01-30T21:52:36.717Z,78.30
2018-01-30T21:55:05.126Z,77.82
2018-01-30T21:57:33.585Z,78.89
2018-01-30T22:00:01.986Z,77.89
2018-01-30T22:02:30.463Z,78.84
2018-01-30T22:04:58.950Z,78.49
2018-01-30T22:07:27.360Z,77.79
2018-01-30T22:09:55.779Z,77.85
2018-01-30T22:12:24.241Z,77.09
2018-01-30T22:14:52.678Z,77.57
2018-01-30T22:17:21.082Z,77.80
2018-01-30T22:19:49.541Z,77.28
2018-01-30T22:22:17.957Z,77.54
2018-01-30T22:24:46.372Z,77.00
2018-01-30T22:27:14.809Z,76.95
2018-01-30T22:29:43.257Z,76.70
2018-01-30T22:32:11.660Z,76.62
2018-01-30T22:34:40.110Z,76.90
2018-01-30T22:37:08.522Z,76.68
2018-01-30T22:39:36.957Z,77.23
2018-01-30T22:42:05.390Z,77.00
2018-01-30T22:44:33.777Z,77.16
2018-01-30T22:47:02.200Z,76.87
